createdAt,value
2023-05-03T00:00:00.917Z,101203.00
2023-05-03T00:05:06.122Z,101207.60
2023-05-03T00:10:18.625Z,101206.80
2023-05-03T00:15:21.927Z,101215.80
2023-05-03T00:20:25.546Z,101202.20
2023-05-03T00:25:28.860Z,101206.00
2023-05-03T00:30:32.060Z,101216.20
2023-05-03T00:35:35.374Z,101219.00
2023-05-03T00:40:38.478Z,101218.20
2023-05-03T00:45:42.200Z,101214.20
2023-05-03T00:50:47.826Z,101215.80
2023-05-03T00:55:54.243Z,101218.60
2023-05-03T01:00:57.555Z,101220.00
2023-05-03T01:06:16.369Z,101219.60
2023-05-03T01:11:27.645Z,101220.00
2023-05-03T01:16:44.728Z,101215.40
2023-05-03T01:22:03.385Z,101218.00
2023-05-03T01:27:06.850Z,101213.80
2023-05-03T01:32:23.104Z,101225.60
2023-05-03T01:37:26.585Z,101220.00
2023-05-03T01:42:31.528Z,101217.20
2023-05-03T01:47:34.978Z,101220.00
2023-05-03T01:52:38.463Z,101231.60
2023-05-03T01:57:41.792Z,101236.60
2023-05-03T02:02:45.023Z,101234.00
2023-05-03T02:07:48.201Z,101234.40
2023-05-03T02:12:51.711Z,101230.20
2023-05-03T02:17:56.058Z,101234.60
2023-05-03T02:22:59.456Z,101229.20
2023-05-03T02:28:05.432Z,101234.80
2023-05-03T02:33:08.773Z,101234.80
2023-05-03T02:38:12.271Z,101235.60
2023-05-03T02:43:15.466Z,101243.00
2023-05-03T02:48:18.674Z,101249.00
2023-05-03T02:53:22.209Z,101242.60
2023-05-03T02:58:25.291Z,101244.80
2023-05-03T03:03:28.510Z,101244.80
2023-05-03T03:08:31.916Z,101247.40
2023-05-03T03:13:39.901Z,101251.60
2023-05-03T03:18:43.146Z,101256.40
2023-05-03T03:23:46.390Z,101257.60
2023-05-03T03:28:49.473Z,101258.40
2023-05-03T03:33:52.594Z,101265.80
2023-05-03T03:38:56.189Z,101263.20
2023-05-03T03:43:59.205Z,101262.60
2023-05-03T03:49:02.393Z,101259.60
2023-05-03T03:54:05.612Z,101265.60
2023-05-03T03:59:08.825Z,101271.60
2023-05-03T04:04:12.102Z,101276.40
2023-05-03T04:09:17.544Z,101278.00
2023-05-03T04:14:21.308Z,101279.20
2023-05-03T04:19:26.223Z,101285.60
2023-05-03T04:24:30.834Z,101282.60
2023-05-03T04:29:34.108Z,101281.40
2023-05-03T04:34:37.935Z,101272.60
2023-05-03T04:39:41.149Z,101273.20
2023-05-03T04:44:44.966Z,101282.40
2023-05-03T04:49:48.171Z,101286.60
2023-05-03T04:54:51.486Z,101286.40
2023-05-03T04:59:55.410Z,101291.40
2023-05-03T05:04:58.719Z,101289.20
2023-05-03T05:10:02.301Z,101300.60
2023-05-03T05:15:07.090Z,101297.60
2023-05-03T05:20:12.542Z,101304.40
2023-05-03T05:25:16.168Z,101305.80
2023-05-03T05:30:20.010Z,101314.60
2023-05-03T05:35:23.510Z,101315.40
2023-05-03T05:40:27.021Z,101319.40
2023-05-03T05:45:30.363Z,101329.00
2023-05-03T05:50:33.845Z,101330.20
2023-05-03T05:55:37.170Z,101334.40
2023-05-03T06:00:40.389Z,101331.00
2023-05-03T06:05:43.713Z,101331.20
2023-05-03T06:10:47.200Z,101339.60
2023-05-03T06:15:50.298Z,101344.40
2023-05-03T06:20:53.421Z,101349.00
2023-05-03T06:25:56.629Z,101348.80
2023-05-03T06:30:59.811Z,101366.00
2023-05-03T06:36:03.371Z,101370.20
2023-05-03T06:41:06.487Z,101374.20
2023-05-03T06:46:09.687Z,101375.20
2023-05-03T06:51:12.865Z,101364.00
2023-05-03T06:56:16.189Z,101368.80
2023-05-03T07:01:21.003Z,101363.40
2023-05-03T07:06:24.650Z,101370.00
2023-05-03T07:11:28.154Z,101367.20
2023-05-03T07:16:31.523Z,101374.40
2023-05-03T07:21:35.610Z,101379.00
2023-05-03T07:26:39.218Z,101378.60
2023-05-03T07:31:44.533Z,101376.20
2023-05-03T07:36:47.687Z,101375.00
2023-05-03T07:41:51.101Z,101368.60
2023-05-03T07:46:54.401Z,101372.40
2023-05-03T07:51:58.967Z,101385.40
2023-05-03T07:57:03.989Z,101374.40
2023-05-03T08:02:08.326Z,101379.00
2023-05-03T08:07:12.165Z,101377.60
2023-05-03T08:12:15.262Z,101380.40
2023-05-03T08:17:18.472Z,101383.60
2023-05-03T08:22:21.787Z,101377.20
2023-05-03T08:27:26.425Z,101377.20
2023-05-03T08:32:30.736Z,101379.60
2023-05-03T08:37:42.445Z,101386.60
2023-05-03T08:42:46.615Z,101389.80
2023-05-03T08:47:55.524Z,101391.20
2023-05-03T08:52:59.904Z,101390.40
2023-05-03T08:58:13.316Z,101393.20
2023-05-03T09:03:16.965Z,101403.20
2023-05-03T09:08:23.016Z,101406.60
2023-05-03T09:13:34.144Z,101409.60
2023-05-03T09:18:37.832Z,101411.00
2023-05-03T09:23:41.673Z,101415.00
2023-05-03T09:28:44.873Z,101409.60
2023-05-03T09:33:47.978Z,101411.40
2023-05-03T09:38:52.973Z,101419.20
2023-05-03T09:43:58.984Z,101415.00
2023-05-03T09:49:03.702Z,101409.20
2023-05-03T09:54:07.635Z,101408.80
2023-05-03T09:59:10.774Z,101412.40
2023-05-03T10:04:19.858Z,101416.20
2023-05-03T10:09:35.114Z,101414.80
2023-05-03T10:14:42.801Z,101415.20
2023-05-03T10:20:07.548Z,101424.20
2023-05-03T10:25:11.789Z,101419.80
2023-05-03T10:30:34.980Z,101415.20
2023-05-03T10:35:49.246Z,101419.40
2023-05-03T10:40:55.188Z,101420.40
2023-05-03T10:46:01.542Z,101408.00
2023-05-03T10:51:31.025Z,101413.00
2023-05-03T10:56:34.196Z,101424.60
2023-05-03T11:01:38.223Z,101413.60
2023-05-03T11:06:44.139Z,101413.40
2023-05-03T11:11:47.345Z,101408.20
2023-05-03T11:16:52.009Z,101416.20
2023-05-03T11:21:56.126Z,101428.60
2023-05-03T11:26:59.384Z,101434.60
2023-05-03T11:32:02.560Z,101422.80
2023-05-03T11:37:09.766Z,101430.20
2023-05-03T11:42:12.915Z,101428.80
2023-05-03T11:47:16.474Z,101428.40
2023-05-03T11:52:25.137Z,101419.80
2023-05-03T11:57:28.892Z,101427.00
2023-05-03T12:02:33.211Z,101427.80
2023-05-03T12:07:40.960Z,101430.60
2023-05-03T12:13:00.493Z,101436.20
2023-05-03T12:18:13.523Z,101442.40
2023-05-03T12:23:17.956Z,101444.20
2023-05-03T12:28:21.950Z,101440.80
2023-05-03T12:33:28.193Z,101448.00
2023-05-03T12:38:32.062Z,101444.00
2023-05-03T12:43:36.698Z,101446.80
2023-05-03T12:48:40.179Z,101449.80
2023-05-03T12:53:47.069Z,101448.80
2023-05-03T12:59:18.243Z,101447.80
2023-05-03T13:09:28.008Z,101448.00
2023-05-03T13:14:43.058Z,101446.00
2023-05-03T13:19:50.146Z,101431.20
2023-05-03T13:24:53.273Z,101440.20
2023-05-03T13:29:56.660Z,101430.80
2023-05-03T13:34:59.864Z,101433.80
2023-05-03T13:40:03.176Z,101422.60
2023-05-03T13:45:07.934Z,101418.40
2023-05-03T13:50:11.954Z,101417.20
2023-05-03T13:55:15.052Z,101414.60
2023-05-03T14:00:21.029Z,101420.80
2023-05-03T14:05:24.366Z,101418.40
2023-05-03T14:10:27.813Z,101405.80
2023-05-03T14:15:31.623Z,101417.60
2023-05-03T14:20:35.920Z,101419.80
2023-05-03T14:25:39.157Z,101420.40
2023-05-03T14:30:42.549Z,101423.40
2023-05-03T14:35:45.844Z,101423.60
2023-05-03T14:40:50.407Z,101424.00
2023-05-03T14:45:53.520Z,101428.20
2023-05-03T14:50:56.805Z,101430.80
2023-05-03T14:56:00.279Z,101429.40
2023-05-03T15:01:03.645Z,101423.80
2023-05-03T15:06:07.907Z,101429.40
2023-05-03T15:11:11.490Z,101426.00
2023-05-03T15:16:14.855Z,101428.60
2023-05-03T15:21:22.392Z,101427.40
2023-05-03T15:26:25.624Z,101428.20
2023-05-03T15:31:28.974Z,101426.00
2023-05-03T15:36:36.859Z,101418.00
2023-05-03T15:41:40.176Z,101435.60
2023-05-03T15:46:44.550Z,101432.40
2023-05-03T15:51:47.819Z,101444.60
2023-05-03T15:56:53.785Z,101439.20
2023-05-03T16:01:58.057Z,101446.40
2023-05-03T16:07:03.500Z,101435.60
2023-05-03T16:12:07.615Z,101438.80
2023-05-03T16:17:11.033Z,101432.40
2023-05-03T16:22:14.374Z,101436.80
2023-05-03T16:27:17.472Z,101440.60
2023-05-03T16:32:21.052Z,101441.80
2023-05-03T16:37:24.173Z,101438.60
2023-05-03T16:42:27.371Z,101441.80
2023-05-03T16:47:30.810Z,101443.40
2023-05-03T16:52:39.564Z,101444.60
2023-05-03T16:57:42.854Z,101444.20
2023-05-03T17:02:46.321Z,101444.00
2023-05-03T17:07:49.777Z,101445.40
2023-05-03T17:12:54.953Z,101450.80
2023-05-03T17:17:58.248Z,101449.20
2023-05-03T17:23:02.107Z,101448.40
2023-05-03T17:28:05.358Z,101447.80
2023-05-03T17:33:08.572Z,101447.20
2023-05-03T17:38:12.229Z,101453.80
2023-05-03T17:43:18.719Z,101451.00
2023-05-03T17:48:22.025Z,101455.60
2023-05-03T17:53:25.188Z,101455.80
2023-05-03T17:58:28.603Z,101457.40
2023-05-03T18:03:34.258Z,101457.20
2023-05-03T18:08:38.041Z,101464.60
2023-05-03T18:13:41.827Z,101467.60
2023-05-03T18:18:45.025Z,101469.00
2023-05-03T18:23:48.229Z,101471.60
2023-05-03T18:28:53.622Z,101477.40
2023-05-03T18:33:57.104Z,101477.20
2023-05-03T18:39:00.321Z,101481.80
2023-05-03T18:44:04.649Z,101491.20
2023-05-03T18:49:09.901Z,101500.40
2023-05-03T18:54:13.217Z,101501.80
2023-05-03T18:59:16.335Z,101510.60
2023-05-03T19:04:20.096Z,101509.40
2023-05-03T19:09:23.483Z,101521.20
2023-05-03T19:14:26.913Z,101521.00
2023-05-03T19:19:30.187Z,101515.20
2023-05-03T19:24:33.431Z,101520.00
2023-05-03T19:29:36.816Z,101514.40
2023-05-03T19:34:39.939Z,101514.20
2023-05-03T19:39:43.539Z,101514.80
2023-05-03T19:44:46.772Z,101518.60
2023-05-03T19:49:49.949Z,101515.00
2023-05-03T19:54:53.370Z,101515.60
2023-05-03T19:59:56.682Z,101517.20
2023-05-03T20:05:00.141Z,101519.40
2023-05-03T20:10:04.057Z,101526.00
2023-05-03T20:15:08.862Z,101528.00
2023-05-03T20:20:13.400Z,101525.00
2023-05-03T20:25:21.587Z,101522.00
2023-05-03T20:30:25.530Z,101527.20
2023-05-03T20:35:28.774Z,101524.00
2023-05-03T20:40:35.974Z,101535.80
2023-05-03T20:45:39.242Z,101533.60
2023-05-03T20:50:44.124Z,101531.80
2023-05-03T20:55:47.363Z,101527.40
2023-05-03T21:00:56.954Z,101532.80
2023-05-03T21:06:01.432Z,101528.60
2023-05-03T21:11:04.540Z,101530.00
2023-05-03T21:16:09.559Z,101531.20
2023-05-03T21:21:12.993Z,101530.60
2023-05-03T21:26:16.346Z,101544.00
2023-05-03T21:31:19.553Z,101534.60
2023-05-03T21:36:23.335Z,101537.00
2023-05-03T21:41:27.166Z,101536.00
2023-05-03T21:46:30.325Z,101534.40
2023-05-03T21:51:33.483Z,101535.80
2023-05-03T21:56:36.734Z,101536.40
2023-05-03T22:01:40.728Z,101539.80
2023-05-03T22:06:44.637Z,101537.60
2023-05-03T22:11:48.277Z,101544.00
2023-05-03T22:16:51.676Z,101544.40
2023-05-03T22:21:54.895Z,101542.40
2023-05-03T22:26:59.520Z,101534.60
2023-05-03T22:32:03.208Z,101536.60
2023-05-03T22:37:06.562Z,101546.00
2023-05-03T22:42:09.761Z,101539.20
2023-05-03T22:47:13.091Z,101539.40
2023-05-03T22:52:16.336Z,101533.60
2023-05-03T22:57:21.389Z,101529.20
2023-05-03T23:02:24.668Z,101526.20
2023-05-03T23:07:28.468Z,101523.40
2023-05-03T23:12:31.862Z,101524.00
2023-05-03T23:17:35.261Z,101521.00
2023-05-03T23:22:41.173Z,101520.00
2023-05-03T23:27:44.379Z,101520.60
2023-05-03T23:32:48.269Z,101521.60
2023-05-03T23:37:52.141Z,101522.60
2023-05-03T23:42:55.662Z,101519.00
2023-05-03T23:47:58.900Z,101520.20
2023-05-03T23:53:03.849Z,101513.20
2023-05-03T23:58:07.113Z,101509.20
